Time;durP1;ratioP1;P1;durP2;ratioP2;P2;SDS_P1;SDS_P2;PMS_P1;PMS_P2;Temp;Humidity;BMP_temperature;BMP_pressure;BME280_temperature;BME280_humidity;BME280_pressure;Samples;Min_cycle;Max_cycle;Signal;HPM_P1;HPM_P2
2023/07/17 00:00:12;;;;;;;4.28;1.90;;;;;;;;;;5074927;28;20049;-72
2023/07/17 00:02:40;;;;;;;4.75;1.75;;;;;;;;;;5074036;28;20048;-72
2023/07/17 00:05:07;;;;;;;7.13;1.77;;;;;;;;;;5075202;28;20045;-71
2023/07/17 00:07:34;;;;;;;5.00;1.83;;;;;;;;;;5074044;28;20051;-72
2023/07/17 00:10:01;;;;;;;4.72;2.20;;;;;;;;;;5075520;28;20048;-73
2023/07/17 00:12:28;;;;;;;7.70;2.35;;;;;;;;;;5074639;28;20048;-72
2023/07/17 00:14:55;;;;;;;5.35;1.95;;;;;;;;;;5074649;28;20048;-72
2023/07/17 00:17:21;;;;;;;8.15;2.22;;;;;;;;;;5075807;28;20179;-71
2023/07/17 00:19:56;;;;;;;4.38;1.92;;;;;;;;;;5074418;28;20044;-74
2023/07/17 00:22:24;;;;;;;4.05;2.10;;;;;;;;;;5074098;28;20091;-72
2023/07/17 00:24:52;;;;;;;6.00;2.13;;;;;;;;;;5072202;28;20128;-73
2023/07/17 00:27:20;;;;;;;4.68;2.00;;;;;;;;;;5071893;28;20059;-71
2023/07/17 00:29:47;;;;;;;5.43;1.77;;;;;;;;;;5071222;28;20037;-72
2023/07/17 00:32:14;;;;;;;4.72;2.05;;;;;;;;;;5071186;28;20041;-71
2023/07/17 00:34:41;;;;;;;4.88;2.17;;;;;;;;;;5071497;28;20052;-72
2023/07/17 00:37:08;;;;;;;5.20;2.17;;;;;;;;;;5070773;28;20075;-72
2023/07/17 00:39:35;;;;;;;4.47;2.28;;;;;;;;;;5070773;28;20048;-71
2023/07/17 00:42:01;;;;;;;5.72;2.28;;;;;;;;;;5069456;28;20048;-71
2023/07/17 00:44:28;;;;;;;5.43;2.50;;;;;;;;;;5071162;28;20052;-71
2023/07/17 00:46:55;;;;;;;10.50;2.38;;;;;;;;;;5070682;28;20052;-72
2023/07/17 00:49:23;;;;;;;4.55;2.40;;;;;;;;;;5071017;28;20055;-71
2023/07/17 00:51:52;;;;;;;5.32;2.50;;;;;;;;;;5071678;28;20055;-73
2023/07/17 00:54:19;;;;;;;5.72;2.53;;;;;;;;;;5070344;28;20048;-73
2023/07/17 00:56:46;;;;;;;8.20;2.90;;;;;;;;;;5070872;28;20044;-73
2023/07/17 00:59:15;;;;;;;6.32;2.80;;;;;;;;;;5070796;28;20056;-72
2023/07/17 01:01:42;;;;;;;7.47;2.78;;;;;;;;;;5070622;28;20146;-73
2023/07/17 01:04:09;;;;;;;6.72;2.60;;;;;;;;;;5070176;28;20110;-73
2023/07/17 01:06:38;;;;;;;7.18;2.65;;;;;;;;;;5070836;28;20044;-72
2023/07/17 01:09:06;;;;;;;8.52;2.85;;;;;;;;;;5070023;28;20080;-72
2023/07/17 01:11:33;;;;;;;8.68;3.30;;;;;;;;;;5070779;28;20055;-73
2023/07/17 01:14:00;;;;;;;5.30;2.83;;;;;;;;;;5072536;28;20059;-72
2023/07/17 01:16:27;;;;;;;9.48;3.10;;;;;;;;;;5072278;28;20185;-73
2023/07/17 01:18:54;;;;;;;4.63;2.95;;;;;;;;;;5069664;28;20424;-78
2023/07/17 01:21:26;;;;;;;5.95;3.15;;;;;;;;;;5070305;28;20071;-73
2023/07/17 01:23:54;;;;;;;5.47;3.10;;;;;;;;;;5069914;28;20084;-75
2023/07/17 01:26:21;;;;;;;11.07;3.67;;;;;;;;;;5070498;28;20515;-72
2023/07/17 01:28:48;;;;;;;5.55;2.78;;;;;;;;;;5069766;28;20523;-72
2023/07/17 01:31:14;;;;;;;5.50;2.90;;;;;;;;;;5070299;28;20048;-71
2023/07/17 01:33:42;;;;;;;7.25;3.45;;;;;;;;;;5069401;28;20528;-72
2023/07/17 01:36:09;;;;;;;7.53;3.17;;;;;;;;;;5069160;28;20072;-72
2023/07/17 01:38:35;;;;;;;7.32;3.28;;;;;;;;;;5069087;28;20054;-72
2023/07/17 01:41:02;;;;;;;7.35;3.42;;;;;;;;;;5069911;28;20037;-73
2023/07/17 01:43:28;;;;;;;5.40;3.15;;;;;;;;;;5069915;28;20087;-72
2023/07/17 01:45:55;;;;;;;6.40;3.20;;;;;;;;;;5070385;28;20063;-72
2023/07/17 01:48:22;;;;;;;5.28;3.03;;;;;;;;;;5069210;28;20132;-71
2023/07/17 01:50:49;;;;;;;5.43;2.95;;;;;;;;;;5069557;28;20055;-73
2023/07/17 01:53:20;;;;;;;6.95;3.38;;;;;;;;;;5068963;28;20071;-71
2023/07/17 01:55:47;;;;;;;8.15;3.25;;;;;;;;;;5069628;28;20052;-72
2023/07/17 01:58:14;;;;;;;7.85;3.70;;;;;;;;;;5069429;28;20115;-73
2023/07/17 02:00:41;;;;;;;8.07;3.40;;;;;;;;;;5069281;28;20106;-72
2023/07/17 02:03:08;;;;;;;6.38;2.78;;;;;;;;;;5069704;28;20102;-71
2023/07/17 02:05:35;;;;;;;8.25;3.55;;;;;;;;;;5069664;28;20124;-72
2023/07/17 02:08:06;;;;;;;6.22;3.28;;;;;;;;;;5070110;28;20509;-71
2023/07/17 02:10:33;;;;;;;6.72;3.33;;;;;;;;;;5068990;28;20511;-74
2023/07/17 02:13:00;;;;;;;11.07;3.83;;;;;;;;;;5069340;28;20047;-72
2023/07/17 02:15:27;;;;;;;6.22;3.63;;;;;;;;;;5069398;28;20143;-71
2023/07/17 02:17:53;;;;;;;7.57;3.17;;;;;;;;;;5068691;28;20045;-72
2023/07/17 02:20:20;;;;;;;5.55;3.25;;;;;;;;;;5069417;28;20045;-73
2023/07/17 02:22:47;;;;;;;5.85;2.78;;;;;;;;;;5068460;28;20049;-71
2023/07/17 02:25:13;;;;;;;5.65;3.20;;;;;;;;;;5069170;28;20091;-73
2023/07/17 02:27:41;;;;;;;9.32;3.42;;;;;;;;;;5069241;28;20114;-72
2023/07/17 02:30:07;;;;;;;6.45;3.22;;;;;;;;;;5068494;28;20044;-72
2023/07/17 02:32:34;;;;;;;7.10;3.75;;;;;;;;;;5068899;28;20052;-73
2023/07/17 02:35:01;;;;;;;7.72;3.30;;;;;;;;;;5068839;28;20080;-73
2023/07/17 02:37:27;;;;;;;5.85;3.38;;;;;;;;;;5069205;28;20048;-73
2023/07/17 02:39:54;;;;;;;8.80;3.78;;;;;;;;;;5069071;28;20045;-72
2023/07/17 02:42:21;;;;;;;5.55;2.90;;;;;;;;;;5068285;28;20044;-72
2023/07/17 02:44:48;;;;;;;9.73;3.35;;;;;;;;;;5068586;28;20064;-72
2023/07/17 02:47:15;;;;;;;7.40;3.42;;;;;;;;;;5068233;28;20053;-74
2023/07/17 02:49:44;;;;;;;6.68;2.97;;;;;;;;;;5068688;28;20049;-74
2023/07/17 02:52:11;;;;;;;8.68;3.10;;;;;;;;;;5068167;28;20041;-74
2023/07/17 02:54:37;;;;;;;8.52;3.35;;;;;;;;;;5068491;28;20037;-75
2023/07/17 02:57:05;;;;;;;9.15;3.08;;;;;;;;;;5069039;28;20054;-72
2023/07/17 02:59:32;;;;;;;7.13;3.25;;;;;;;;;;5068368;28;20508;-72
2023/07/17 03:01:58;;;;;;;8.45;3.35;;;;;;;;;;5068300;28;20047;-72
2023/07/17 03:04:25;;;;;;;9.20;3.53;;;;;;;;;;5068047;28;20479;-72
2023/07/17 03:06:52;;;;;;;9.55;3.45;;;;;;;;;;5068929;28;20052;-73
2023/07/17 03:09:19;;;;;;;9.57;3.20;;;;;;;;;;5068182;28;20067;-72
2023/07/17 03:11:46;;;;;;;6.90;3.28;;;;;;;;;;5069911;28;20599;-71
2023/07/17 03:14:13;;;;;;;7.43;3.60;;;;;;;;;;5068957;28;20055;-72
2023/07/17 03:16:40;;;;;;;7.72;3.25;;;;;;;;;;5068550;28;20056;-75
2023/07/17 03:19:07;;;;;;;7.45;3.08;;;;;;;;;;5067898;28;20637;-73
2023/07/17 03:21:34;;;;;;;9.63;3.05;;;;;;;;;;5067878;28;20135;-75
2023/07/17 03:24:04;;;;;;;6.75;3.10;;;;;;;;;;5067892;28;20485;-72
2023/07/17 03:26:30;;;;;;;6.63;3.08;;;;;;;;;;5068141;28;20053;-72
2023/07/17 03:28:57;;;;;;;7.22;3.25;;;;;;;;;;5068103;28;20048;-72
2023/07/17 03:31:24;;;;;;;10.88;3.20;;;;;;;;;;5068174;28;20045;-74
2023/07/17 03:33:50;;;;;;;5.72;3.08;;;;;;;;;;5068325;28;20128;-71
2023/07/17 03:36:17;;;;;;;7.13;3.17;;;;;;;;;;5068094;28;20498;-73
2023/07/17 03:38:44;;;;;;;7.15;2.92;;;;;;;;;;5068235;28;20044;-72
2023/07/17 03:41:11;;;;;;;6.82;2.90;;;;;;;;;;5067844;28;20044;-72
2023/07/17 03:43:37;;;;;;;13.63;3.50;;;;;;;;;;5068101;28;20059;-72
2023/07/17 03:46:04;;;;;;;6.40;3.08;;;;;;;;;;5068316;28;20079;-72
2023/07/17 03:48:31;;;;;;;5.60;2.83;;;;;;;;;;5066965;28;20047;-72
2023/07/17 03:50:57;;;;;;;7.22;3.47;;;;;;;;;;5070925;28;20049;-72
2023/07/17 03:53:28;;;;;;;7.28;3.10;;;;;;;;;;5067467;28;20496;-72
2023/07/17 03:55:55;;;;;;;7.00;2.95;;;;;;;;;;5067771;28;20056;-73
2023/07/17 03:58:22;;;;;;;7.13;3.10;;;;;;;;;;5069604;28;20053;-72
2023/07/17 04:00:49;;;;;;;8.40;3.10;;;;;;;;;;5071470;28;20079;-73
2023/07/17 04:03:16;;;;;;;6.45;2.78;;;;;;;;;;5071893;28;20259;-72
2023/07/17 04:05:44;;;;;;;7.82;3.35;;;;;;;;;;5071856;28;20072;-76
2023/07/17 04:08:11;;;;;;;6.57;3.35;;;;;;;;;;5071693;28;20045;-73
2023/07/17 04:10:37;;;;;;;7.05;2.97;;;;;;;;;;5071798;28;20072;-71
2023/07/17 04:13:04;;;;;;;6.93;3.13;;;;;;;;;;5071299;28;20048;-73
2023/07/17 04:15:31;;;;;;;8.07;2.95;;;;;;;;;;5070187;28;20089;-71
2023/07/17 04:17:57;;;;;;;8.95;3.20;;;;;;;;;;5071045;28;20431;-73
2023/07/17 04:20:24;;;;;;;5.07;2.80;;;;;;;;;;5075835;28;20052;-72
2023/07/17 04:22:51;;;;;;;7.00;2.85;;;;;;;;;;5071142;28;20162;-72
2023/07/17 04:25:18;;;;;;;6.38;3.10;;;;;;;;;;5071279;28;20459;-73
2023/07/17 04:27:44;;;;;;;6.88;3.15;;;;;;;;;;5071604;28;20060;-73
2023/07/17 04:30:11;;;;;;;9.20;3.47;;;;;;;;;;5071116;28;20098;-71
2023/07/17 04:32:38;;;;;;;5.20;2.88;;;;;;;;;;5071155;28;20058;-72
2023/07/17 04:35:06;;;;;;;9.00;3.30;;;;;;;;;;5071154;28;20051;-72
2023/07/17 04:37:33;;;;;;;10.68;3.50;;;;;;;;;;5069507;28;20537;-71
2023/07/17 04:39:59;;;;;;;7.93;3.28;;;;;;;;;;5071387;28;20076;-75
2023/07/17 04:42:26;;;;;;;10.30;3.38;;;;;;;;;;5071272;28;20130;-71
2023/07/17 04:44:53;;;;;;;9.85;3.08;;;;;;;;;;5071179;28;20045;-75
2023/07/17 04:47:19;;;;;;;6.50;3.30;;;;;;;;;;5070750;28;20059;-71
2023/07/17 04:49:46;;;;;;;8.60;3.15;;;;;;;;;;5070584;28;20080;-73
2023/07/17 04:52:13;;;;;;;6.22;3.25;;;;;;;;;;5070117;28;20044;-72
2023/07/17 04:54:40;;;;;;;8.45;3.08;;;;;;;;;;5070962;28;20055;-71
2023/07/17 04:57:06;;;;;;;5.28;2.97;;;;;;;;;;5070582;28;20051;-71
2023/07/17 04:59:33;;;;;;;8.93;3.22;;;;;;;;;;5071199;28;20106;-74
2023/07/17 05:01:59;;;;;;;5.05;2.92;;;;;;;;;;5070463;28;20048;-72
2023/07/17 05:04:26;;;;;;;9.77;3.28;;;;;;;;;;5070063;28;20140;-72
2023/07/17 05:06:53;;;;;;;5.97;3.50;;;;;;;;;;5070575;28;20455;-74
2023/07/17 05:09:19;;;;;;;8.88;2.90;;;;;;;;;;5070223;28;20408;-73
2023/07/17 05:11:46;;;;;;;6.05;3.40;;;;;;;;;;5070478;28;20052;-74
2023/07/17 05:14:13;;;;;;;8.35;3.35;;;;;;;;;;5070727;28;20507;-73
2023/07/17 05:16:39;;;;;;;6.15;3.22;;;;;;;;;;5070600;28;20132;-73
2023/07/17 05:19:06;;;;;;;11.63;3.28;;;;;;;;;;5069863;28;20057;-73
2023/07/17 05:21:33;;;;;;;6.68;3.38;;;;;;;;;;5070423;28;20123;-74
2023/07/17 05:24:00;;;;;;;6.75;3.45;;;;;;;;;;5069615;28;20404;-73
2023/07/17 05:26:26;;;;;;;9.27;3.70;;;;;;;;;;5069996;28;20052;-73
2023/07/17 05:28:53;;;;;;;8.75;3.58;;;;;;;;;;5070297;28;20124;-73
2023/07/17 05:31:21;;;;;;;5.85;3.00;;;;;;;;;;5070087;28;20106;-74
2023/07/17 05:33:49;;;;;;;8.65;3.38;;;;;;;;;;5069809;28;20048;-74
2023/07/17 05:36:16;;;;;;;7.75;3.05;;;;;;;;;;5069957;28;20463;-73
2023/07/17 05:38:42;;;;;;;8.30;3.35;;;;;;;;;;5069808;28;20056;-74
2023/07/17 05:41:09;;;;;;;6.28;2.88;;;;;;;;;;5069929;28;20056;-75
2023/07/17 05:43:35;;;;;;;8.88;3.45;;;;;;;;;;5071457;28;20052;-75
2023/07/17 05:46:02;;;;;;;8.30;3.42;;;;;;;;;;5069652;28;20062;-73
2023/07/17 05:48:29;;;;;;;6.13;3.30;;;;;;;;;;5069285;28;20047;-77
2023/07/17 05:50:56;;;;;;;8.63;3.20;;;;;;;;;;5069823;28;20175;-74
2023/07/17 05:53:22;;;;;;;7.82;3.15;;;;;;;;;;5068593;28;20110;-76
2023/07/17 05:55:49;;;;;;;7.45;3.50;;;;;;;;;;5069633;28;20132;-73
2023/07/17 05:58:16;;;;;;;7.90;2.92;;;;;;;;;;5069666;28;20056;-75
2023/07/17 06:00:45;;;;;;;8.05;2.95;;;;;;;;;;5069493;28;20174;-74
2023/07/17 06:03:12;;;;;;;8.30;3.20;;;;;;;;;;5068871;28;20048;-74
2023/07/17 06:05:39;;;;;;;5.95;3.00;;;;;;;;;;5069531;28;20067;-73
2023/07/17 06:08:06;;;;;;;8.02;3.38;;;;;;;;;;5068748;28;20045;-74
2023/07/17 06:10:32;;;;;;;7.45;3.00;;;;;;;;;;5069516;28;20520;-74
2023/07/17 06:12:59;;;;;;;6.43;2.85;;;;;;;;;;5069099;28;20045;-73
2023/07/17 06:15:27;;;;;;;6.00;3.20;;;;;;;;;;5069245;28;20353;-74
2023/07/17 06:17:54;;;;;;;8.73;3.05;;;;;;;;;;5068557;28;20044;-74
2023/07/17 06:20:20;;;;;;;5.38;3.00;;;;;;;;;;5068615;28;20491;-75
2023/07/17 06:22:47;;;;;;;6.70;3.10;;;;;;;;;;5068341;28;20045;-74
2023/07/17 06:25:14;;;;;;;6.82;3.13;;;;;;;;;;5069046;28;20116;-74
2023/07/17 06:27:41;;;;;;;9.02;3.00;;;;;;;;;;5068820;28;20087;-74
2023/07/17 06:30:08;;;;;;;10.02;3.10;;;;;;;;;;5069055;28;20106;-73
2023/07/17 06:32:35;;;;;;;9.18;2.67;;;;;;;;;;5068855;28;20057;-74
2023/07/17 06:35:05;;;;;;;10.13;2.85;;;;;;;;;;5068885;28;20048;-74
2023/07/17 06:37:32;;;;;;;8.52;2.80;;;;;;;;;;5068596;28;20131;-73
2023/07/17 06:39:59;;;;;;;6.63;2.40;;;;;;;;;;5068866;28;20514;-74
2023/07/17 06:42:25;;;;;;;7.10;3.10;;;;;;;;;;5068494;28;20052;-76
2023/07/17 06:44:52;;;;;;;5.72;3.17;;;;;;;;;;5068770;28;20052;-72
2023/07/17 06:47:18;;;;;;;11.07;3.15;;;;;;;;;;5068733;28;20071;-73
2023/07/17 06:50:02;;;;;;;6.10;2.80;;;;;;;;;;5068756;28;20040;-81
2023/07/17 06:52:29;;;;;;;4.45;2.45;;;;;;;;;;5066770;28;20040;-74
2023/07/17 06:54:56;;;;;;;7.80;2.70;;;;;;;;;;5068688;28;20079;-73
2023/07/17 06:57:31;;;;;;;5.03;2.75;;;;;;;;;;5068524;28;20059;-73
2023/07/17 06:59:58;;;;;;;6.25;2.50;;;;;;;;;;5068971;28;20110;-74
2023/07/17 07:02:25;;;;;;;5.72;2.97;;;;;;;;;;5068602;28;20052;-74
2023/07/17 07:04:51;;;;;;;8.35;3.15;;;;;;;;;;5068282;28;20536;-74
2023/07/17 07:07:18;;;;;;;9.55;3.05;;;;;;;;;;5068035;28;20052;-75
2023/07/17 07:09:45;;;;;;;6.68;2.85;;;;;;;;;;5068626;28;20049;-72
2023/07/17 07:12:13;;;;;;;8.73;3.00;;;;;;;;;;5068383;28;20055;-77
2023/07/17 07:14:40;;;;;;;8.80;3.03;;;;;;;;;;5066993;28;20404;-75
2023/07/17 07:17:08;;;;;;;6.60;3.03;;;;;;;;;;5073870;28;20056;-74
2023/07/17 07:19:35;;;;;;;6.07;2.80;;;;;;;;;;5067881;28;20079;-73
2023/07/17 07:22:02;;;;;;;6.60;3.00;;;;;;;;;;5067792;28;20049;-74
2023/07/17 07:24:29;;;;;;;7.63;2.88;;;;;;;;;;5068550;28;20142;-75
2023/07/17 07:26:55;;;;;;;8.65;3.17;;;;;;;;;;5070797;28;20697;-72
2023/07/17 07:29:22;;;;;;;5.32;2.83;;;;;;;;;;5068562;28;20041;-73
2023/07/17 07:31:48;;;;;;;5.90;2.78;;;;;;;;;;5076208;28;20050;-72
2023/07/17 07:34:15;;;;;;;7.95;2.97;;;;;;;;;;5076811;28;20044;-74
2023/07/17 07:36:42;;;;;;;5.63;2.88;;;;;;;;;;5074147;28;20051;-72
2023/07/17 07:39:09;;;;;;;6.45;3.38;;;;;;;;;;5075385;28;20131;-72
2023/07/17 07:41:36;;;;;;;5.68;3.00;;;;;;;;;;5073782;28;20517;-73
2023/07/17 07:44:04;;;;;;;4.63;2.88;;;;;;;;;;5071989;28;20059;-75
2023/07/17 07:46:31;;;;;;;10.63;3.00;;;;;;;;;;5077196;28;20051;-73
2023/07/17 07:48:58;;;;;;;5.13;2.58;;;;;;;;;;5080634;28;20044;-77
2023/07/17 07:51:24;;;;;;;6.80;2.50;;;;;;;;;;5077529;28;20048;-72
2023/07/17 07:53:51;;;;;;;8.32;2.80;;;;;;;;;;5083248;28;20048;-72
2023/07/17 07:56:18;;;;;;;10.23;3.38;;;;;;;;;;5075305;28;20044;-72
2023/07/17 07:58:45;;;;;;;6.22;2.78;;;;;;;;;;5071948;28;20094;-73
2023/07/17 08:01:12;;;;;;;6.20;2.78;;;;;;;;;;5071831;28;20044;-77
2023/07/17 08:03:41;;;;;;;7.45;3.13;;;;;;;;;;5080389;28;20059;-75
2023/07/17 08:06:10;;;;;;;6.50;2.50;;;;;;;;;;5076758;28;20115;-76
2023/07/17 08:08:36;;;;;;;7.60;2.90;;;;;;;;;;5076733;28;20105;-76
2023/07/17 08:11:03;;;;;;;8.00;2.80;;;;;;;;;;5082608;28;20294;-71
2023/07/17 08:13:30;;;;;;;6.53;2.78;;;;;;;;;;5070993;28;20336;-71
2023/07/17 08:15:56;;;;;;;6.68;2.80;;;;;;;;;;5080613;28;20336;-71
2023/07/17 08:18:23;;;;;;;7.38;3.03;;;;;;;;;;5079369;28;20052;-71
2023/07/17 08:20:50;;;;;;;6.28;2.92;;;;;;;;;;5072364;28;20048;-71
2023/07/17 08:23:27;;;;;;;6.20;2.80;;;;;;;;;;5070731;28;20111;-71
2023/07/17 08:25:54;;;;;;;6.97;2.60;;;;;;;;;;5081379;28;20048;-71
2023/07/17 08:28:20;;;;;;;10.45;2.78;;;;;;;;;;5082136;28;20045;-71
2023/07/17 08:30:50;;;;;;;6.35;2.90;;;;;;;;;;5082002;28;20068;-71
2023/07/17 08:33:17;;;;;;;7.35;2.75;;;;;;;;;;5082803;28;20344;-71
2023/07/17 08:35:44;;;;;;;8.80;3.00;;;;;;;;;;5079399;28;20052;-71
2023/07/17 08:38:11;;;;;;;5.90;2.45;;;;;;;;;;5078120;28;20151;-71
2023/07/17 08:40:39;;;;;;;6.57;2.60;;;;;;;;;;5082701;28;20051;-71
2023/07/17 08:43:07;;;;;;;5.25;2.35;;;;;;;;;;5082350;28;20392;-69
2023/07/17 08:45:35;;;;;;;5.38;2.50;;;;;;;;;;5081883;28;20355;-73
2023/07/17 08:48:03;;;;;;;5.20;2.92;;;;;;;;;;5081393;28;20048;-71
2023/07/17 08:50:30;;;;;;;6.60;2.58;;;;;;;;;;5082227;28;20048;-69
2023/07/17 08:52:57;;;;;;;6.20;2.58;;;;;;;;;;5081075;28;20053;-71
2023/07/17 08:55:29;;;;;;;6.38;2.55;;;;;;;;;;5075326;28;20153;-86
2023/07/17 08:57:59;;;;;;;6.45;2.53;;;;;;;;;;5074364;28;20120;-70
2023/07/17 09:00:28;;;;;;;5.60;2.60;;;;;;;;;;5072566;28;20040;-70
2023/07/17 09:02:55;;;;;;;4.78;2.28;;;;;;;;;;5071462;28;20048;-73
2023/07/17 09:05:22;;;;;;;7.35;2.75;;;;;;;;;;5076576;28;20059;-72
2023/07/17 09:07:49;;;;;;;8.23;2.90;;;;;;;;;;5070268;28;20052;-71
2023/07/17 09:10:21;;;;;;;5.57;2.40;;;;;;;;;;5070724;28;20044;-74
2023/07/17 09:22:40;;;;;;;5.95;2.50;;;;;;;;;;5160447;27;20159;-75
2023/07/17 09:25:09;;;;;;;5.00;2.10;;;;;;;;;;5141162;27;20058;-72
2023/07/17 09:27:43;;;;;;;4.10;2.30;;;;;;;;;;5146609;27;20141;-71
2023/07/17 09:30:11;;;;;;;8.73;2.50;;;;;;;;;;5146202;27;20085;-68
2023/07/17 09:32:38;;;;;;;4.68;2.08;;;;;;;;;;5155023;27;20043;-67
2023/07/17 09:35:06;;;;;;;5.43;2.45;;;;;;;;;;5146455;27;20238;-69
2023/07/17 09:37:35;;;;;;;6.57;2.33;;;;;;;;;;5150594;27;20047;-74
2023/07/17 09:40:12;;;;;;;5.07;2.03;;;;;;;;;;5134498;27;20121;-68
2023/07/17 09:42:41;;;;;;;3.80;2.03;;;;;;;;;;5147937;27;20049;-78
2023/07/17 09:45:11;;;;;;;5.82;2.00;;;;;;;;;;5144397;27;20075;-78
2023/07/17 09:47:39;;;;;;;7.97;2.50;;;;;;;;;;5152397;27;20043;-82
2023/07/17 09:50:10;;;;;;;4.88;1.98;;;;;;;;;;5141725;27;20046;-69
2023/07/17 09:52:36;;;;;;;4.63;2.10;;;;;;;;;;5123954;27;20051;-68
2023/07/17 09:55:04;;;;;;;3.50;1.95;;;;;;;;;;5105592;28;20051;-68
2023/07/17 09:57:34;;;;;;;4.10;1.80;;;;;;;;;;5106429;28;20054;-68
2023/07/17 10:00:10;;;;;;;2.67;1.65;;;;;;;;;;5105936;28;20131;-68
2023/07/17 10:02:41;;;;;;;4.88;1.92;;;;;;;;;;5106591;28;20732;-71
2023/07/17 10:05:08;;;;;;;7.47;1.92;;;;;;;;;;5105673;28;20048;-70
2023/07/17 10:07:41;;;;;;;5.47;2.20;;;;;;;;;;5091511;28;20048;-69
2023/07/17 10:10:09;;;;;;;5.85;1.90;;;;;;;;;;5120116;28;20119;-71
2023/07/17 10:12:38;;;;;;;5.32;1.67;;;;;;;;;;5110533;28;20047;-70
2023/07/17 10:15:06;;;;;;;3.88;1.80;;;;;;;;;;5108450;28;20071;-69
2023/07/17 10:17:35;;;;;;;3.63;1.70;;;;;;;;;;5105723;28;20054;-70
2023/07/17 10:20:08;;;;;;;3.13;1.75;;;;;;;;;;5108168;28;20112;-74
2023/07/17 10:22:43;;;;;;;2.33;1.48;;;;;;;;;;5110426;28;20499;-73
2023/07/17 10:25:17;;;;;;;2.92;1.98;;;;;;;;;;5105150;28;20043;-71
2023/07/17 10:27:51;;;;;;;3.08;1.90;;;;;;;;;;5105945;28;20090;-71
2023/07/17 10:30:29;;;;;;;5.10;1.98;;;;;;;;;;5112462;28;20097;-71
2023/07/17 10:33:05;;;;;;;3.67;1.85;;;;;;;;;;5107470;28;20048;-70
2023/07/17 10:35:43;;;;;;;4.05;1.92;;;;;;;;;;5092436;28;20047;-72
2023/07/17 10:38:11;;;;;;;3.92;1.67;;;;;;;;;;5092628;28;20495;-74
2023/07/17 10:40:38;;;;;;;3.60;1.65;;;;;;;;;;5093790;28;20060;-71
2023/07/17 10:43:34;;;;;;;5.75;1.73;;;;;;;;;;5091374;28;20048;-73
2023/07/17 10:46:08;;;;;;;3.00;1.60;;;;;;;;;;5089540;28;20054;-74
2023/07/17 10:48:35;;;;;;;7.57;1.80;;;;;;;;;;5091484;28;20518;-72
2023/07/17 10:51:02;;;;;;;5.30;1.98;;;;;;;;;;5091407;28;20052;-71
2023/07/17 10:53:29;;;;;;;4.85;1.90;;;;;;;;;;5091193;28;20047;-71
2023/07/17 10:55:55;;;;;;;2.88;1.63;;;;;;;;;;5092791;28;20048;-70
2023/07/17 10:58:23;;;;;;;3.08;1.55;;;;;;;;;;5091447;28;20048;-73
2023/07/17 11:00:55;;;;;;;4.28;1.90;;;;;;;;;;5093039;28;20047;-75
2023/07/17 11:03:26;;;;;;;6.85;1.80;;;;;;;;;;5090815;28;20798;-74
2023/07/17 11:05:57;;;;;;;4.63;1.70;;;;;;;;;;5090901;28;20101;-76
2023/07/17 11:08:26;;;;;;;5.57;1.85;;;;;;;;;;5073439;28;20127;-77
2023/07/17 11:11:14;;;;;;;3.95;1.58;;;;;;;;;;5104533;28;20048;-77
2023/07/17 11:13:48;;;;;;;4.47;1.98;;;;;;;;;;5097327;28;20091;-70
2023/07/17 11:16:16;;;;;;;14.57;2.30;;;;;;;;;;5090844;28;20131;-74
2023/07/17 11:18:53;;;;;;;4.20;1.85;;;;;;;;;;5090544;28;20087;-71
2023/07/17 11:21:22;;;;;;;5.18;1.60;;;;;;;;;;5090570;28;20067;-77
2023/07/17 11:23:57;;;;;;;2.70;1.35;;;;;;;;;;5090246;28;20051;-71
2023/07/17 11:26:31;;;;;;;2.60;1.60;;;;;;;;;;5090533;28;20054;-71
2023/07/17 11:28:59;;;;;;;2.72;1.38;;;;;;;;;;5090891;28;20044;-71
2023/07/17 11:31:27;;;;;;;9.30;1.65;;;;;;;;;;5090794;28;20091;-77
2023/07/17 11:34:05;;;;;;;2.58;1.30;;;;;;;;;;5090637;28;20078;-80
2023/07/17 11:36:42;;;;;;;2.15;1.33;;;;;;;;;;5091328;28;20121;-78
2023/07/17 11:39:10;;;;;;;3.47;1.40;;;;;;;;;;5090009;28;20105;-75
2023/07/17 11:41:55;;;;;;;4.57;1.40;;;;;;;;;;5090863;28;20048;-73
2023/07/17 11:44:24;;;;;;;3.95;1.50;;;;;;;;;;5089143;28;20423;-76
2023/07/17 11:46:53;;;;;;;1.85;1.25;;;;;;;;;;5078353;28;20358;-79
2023/07/17 11:49:20;;;;;;;3.40;1.60;;;;;;;;;;5090936;28;20048;-78
2023/07/17 11:51:46;;;;;;;3.33;1.50;;;;;;;;;;5090103;28;20514;-76
2023/07/17 11:54:13;;;;;;;2.97;1.50;;;;;;;;;;5089752;28;20047;-73
2023/07/17 11:56:42;;;;;;;2.40;1.20;;;;;;;;;;5088624;28;20072;-69
2023/07/17 11:59:16;;;;;;;2.47;1.35;;;;;;;;;;5088499;28;20052;-70
2023/07/17 12:01:43;;;;;;;4.88;1.45;;;;;;;;;;5087935;28;20064;-70
2023/07/17 12:04:22;;;;;;;3.67;1.38;;;;;;;;;;5088268;28;20072;-73
2023/07/17 12:06:49;;;;;;;2.47;1.17;;;;;;;;;;5087891;28;20079;-69
2023/07/17 12:09:17;;;;;;;2.80;1.60;;;;;;;;;;5091656;28;20039;-74
2023/07/17 12:11:46;;;;;;;3.85;1.33;;;;;;;;;;5094576;28;20079;-71
2023/07/17 12:14:16;;;;;;;4.38;1.20;;;;;;;;;;5089756;28;20131;-70
2023/07/17 12:16:44;;;;;;;2.50;1.40;;;;;;;;;;5089278;28;20047;-72
2023/07/17 12:19:11;;;;;;;2.40;1.40;;;;;;;;;;5089804;28;20044;-70
2023/07/17 12:21:38;;;;;;;4.07;1.45;;;;;;;;;;5089356;28;20060;-73
2023/07/17 12:24:08;;;;;;;3.07;1.70;;;;;;;;;;5089712;28;20454;-71
2023/07/17 12:26:35;;;;;;;2.08;1.30;;;;;;;;;;5089603;28;20812;-72
2023/07/17 12:29:02;;;;;;;3.53;1.60;;;;;;;;;;5089865;28;20083;-71
2023/07/17 12:31:30;;;;;;;5.13;1.52;;;;;;;;;;5089052;28;20530;-72
2023/07/17 12:33:57;;;;;;;4.20;1.60;;;;;;;;;;5089595;28;20055;-72
2023/07/17 12:36:26;;;;;;;4.60;1.70;;;;;;;;;;5089250;28;20126;-72
2023/07/17 12:39:10;;;;;;;3.20;1.30;;;;;;;;;;5088888;28;20097;-70
2023/07/17 12:41:37;;;;;;;5.50;1.40;;;;;;;;;;5098489;28;20442;-71
2023/07/17 12:44:04;;;;;;;3.50;1.23;;;;;;;;;;5089624;28;20048;-71
2023/07/17 12:46:30;;;;;;;3.63;1.63;;;;;;;;;;5089478;28;20047;-70
2023/07/17 12:48:57;;;;;;;3.20;1.58;;;;;;;;;;5089296;28;20048;-71
2023/07/17 12:51:24;;;;;;;3.35;1.40;;;;;;;;;;5089326;28;20044;-72
2023/07/17 12:53:51;;;;;;;2.97;1.50;;;;;;;;;;5088836;28;20079;-72
2023/07/17 12:56:18;;;;;;;3.58;1.50;;;;;;;;;;5089071;28;20043;-71
2023/07/17 12:58:51;;;;;;;3.08;1.65;;;;;;;;;;5089696;28;20044;-72
2023/07/17 13:01:18;;;;;;;4.18;1.60;;;;;;;;;;5088955;28;20047;-72
2023/07/17 13:03:45;;;;;;;3.75;1.67;;;;;;;;;;5088939;28;20496;-72
2023/07/17 13:06:12;;;;;;;3.90;1.67;;;;;;;;;;5089643;28;20081;-71
2023/07/17 13:08:39;;;;;;;3.08;1.35;;;;;;;;;;5088202;28;20448;-71
2023/07/17 13:11:06;;;;;;;3.90;1.73;;;;;;;;;;5098296;28;20520;-73
2023/07/17 13:13:32;;;;;;;3.50;1.60;;;;;;;;;;5092075;28;20044;-71
2023/07/17 13:15:59;;;;;;;3.75;1.70;;;;;;;;;;5106569;28;20227;-71
2023/07/17 13:18:26;;;;;;;3.10;1.60;;;;;;;;;;5095870;28;20103;-72
2023/07/17 13:20:55;;;;;;;4.35;1.70;;;;;;;;;;5089858;28;20059;-72
2023/07/17 13:23:24;;;;;;;2.80;1.60;;;;;;;;;;5092091;28;20040;-72
2023/07/17 13:25:51;;;;;;;4.68;1.45;;;;;;;;;;5097273;28;20159;-70
2023/07/17 13:28:18;;;;;;;3.08;1.40;;;;;;;;;;5106108;28;20043;-69
2023/07/17 13:30:45;;;;;;;3.33;1.70;;;;;;;;;;5115448;28;20042;-70
2023/07/17 13:33:32;;;;;;;3.78;1.73;;;;;;;;;;5137575;28;20220;-72
2023/07/17 13:41:53;;;;;;;3.53;1.60;;;;;;;;;;5159763;27;20167;-69
2023/07/17 13:44:20;;;;;;;2.20;1.30;;;;;;;;;;5129932;27;20485;-70
2023/07/17 13:46:52;;;;;;;2.07;1.47;;;;;;;;;;5133118;27;20509;-70
2023/07/17 13:49:19;;;;;;;3.90;1.60;;;;;;;;;;5147060;27;20118;-69
2023/07/17 13:51:47;;;;;;;4.72;1.90;;;;;;;;;;5147707;27;20283;-71
2023/07/17 13:54:14;;;;;;;3.08;1.55;;;;;;;;;;5128573;27;20046;-72
2023/07/17 13:56:46;;;;;;;2.45;1.42;;;;;;;;;;5147045;27;20474;-71
2023/07/17 13:59:16;;;;;;;3.60;1.40;;;;;;;;;;5146303;27;20046;-73
2023/07/17 14:01:42;;;;;;;2.83;1.50;;;;;;;;;;5146517;27;20049;-73
2023/07/17 14:04:09;;;;;;;2.78;1.40;;;;;;;;;;5146609;27;20050;-70
2023/07/17 14:06:36;;;;;;;3.72;1.70;;;;;;;;;;5146916;27;20046;-70
2023/07/17 14:09:03;;;;;;;2.58;1.67;;;;;;;;;;5148706;27;20046;-72
2023/07/17 14:11:33;;;;;;;3.13;1.50;;;;;;;;;;5150300;27;20043;-78
2023/07/17 14:14:03;;;;;;;;;;;;;;;;;;5131051;27;20042;-73
2023/07/17 14:16:32;;;;;;;3.20;1.50;;;;;;;;;;5146600;27;19919;-74
2023/07/17 14:19:01;;;;;;;3.22;1.75;;;;;;;;;;5155876;27;20045;-84
2023/07/17 14:21:28;;;;;;;4.35;1.67;;;;;;;;;;5147045;27;20528;-70
2023/07/17 14:23:55;;;;;;;2.45;1.55;;;;;;;;;;5145968;27;20039;-70
2023/07/17 14:26:22;;;;;;;3.40;1.67;;;;;;;;;;5147365;27;20043;-73
2023/07/17 14:30:17;;;;;;;4.38;1.75;;;;;;;;;;5145558;27;20188;-71
2023/07/17 14:32:44;;;;;;;2.50;1.40;;;;;;;;;;5140186;27;20039;-71
2023/07/17 14:35:10;;;;;;;2.95;1.65;;;;;;;;;;5134632;27;20523;-70
2023/07/17 14:37:38;;;;;;;2.63;1.65;;;;;;;;;;5146256;27;20054;-70
2023/07/17 14:40:05;;;;;;;5.40;1.83;;;;;;;;;;5144886;27;20067;-70
2023/07/17 14:42:32;;;;;;;3.72;1.90;;;;;;;;;;5147815;27;20039;-71
2023/07/17 14:44:59;;;;;;;2.30;1.30;;;;;;;;;;5148625;27;20031;-70
2023/07/17 14:47:25;;;;;;;3.42;1.63;;;;;;;;;;5152673;27;20039;-68
2023/07/17 14:49:52;;;;;;;5.57;1.35;;;;;;;;;;5154704;27;20086;-75
2023/07/17 14:52:19;;;;;;;2.80;1.48;;;;;;;;;;5153150;27;20038;-71
2023/07/17 14:54:45;;;;;;;2.97;1.65;;;;;;;;;;5157999;27;20039;-71
2023/07/17 14:57:13;;;;;;;5.45;1.52;;;;;;;;;;5156929;27;20042;-69
2023/07/17 14:59:40;;;;;;;3.13;1.55;;;;;;;;;;5157327;27;20085;-72
2023/07/17 15:02:07;;;;;;;3.95;1.73;;;;;;;;;;5158818;27;20502;-69
2023/07/17 15:04:33;;;;;;;4.13;1.70;;;;;;;;;;5154432;27;20506;-69